CST,Max TemperatureF,Mean TemperatureF,Min TemperatureF,Max Dew PointF,MeanDew PointF,Min DewpointF,Max Humidity, Mean Humidity, Min Humidity, Max Sea Level PressureIn, Mean Sea Level PressureIn, Min Sea Level PressureIn, Max VisibilityMiles, Mean VisibilityMiles, Min VisibilityMiles, Max Wind SpeedMPH, Mean Wind SpeedMPH, Max Gust SpeedMPH,PrecipitationIn, CloudCover, Events, WindDirDegrees
2014-1-1,10,6,2,5,0,-3,84,77,71,30.34,30.25,30.10,10,9,2,12,8,,0.00,7,Snow,357
2014-1-2,14,10,5,12,4,-1,87,77,68,30.38,30.29,30.11,10,9,2,18,5,23,0.00,8,Snow,97
2014-1-3,45,30,14,34,22,11,87,72,51,30.10,29.66,29.41,10,10,5,21,16,28,0.02,3,Rain,208
2014-1-4,43,24,6,32,10,-4,78,66,50,30.25,30.01,29.59,10,10,3,32,19,40,0.00,4,Snow,342
2014-1-5,7,-1,-9,-4,-15,-26,72,53,33,30.49,30.40,30.26,10,10,4,34,16,48,0.00,4,,330
2014-1-6,7,-1,-9,-6,-15,-23,67,55,37,30.43,30.31,30.08,10,10,10,24,12,30,0.00,1,,309
2014-1-7,29,16,2,17,4,-8,74,61,43,30.17,30.03,29.91,10,10,10,18,6,25,0.00,3,Snow,5
2014-1-8,19,14,8,14,8,4,84,73,60,30.31,30.23,30.18,10,10,7,16,4,23,0.00,7,Snow,136
2014-1-9,34,25,16,26,19,14,89,79,59,30.17,29.92,29.72,10,8,4,23,17,30,0.00,5,,186
2014-1-10,44,35,26,28,25,20,89,74,49,29.71,29.59,29.52,10,8,4,17,11,23,0.00,3,,265
2014-1-11,49,39,29,28,23,17,80,56,28,29.83,29.69,29.50,10,10,10,20,11,26,0.00,1,,263
2014-1-12,49,44,37,31,26,21,61,49,35,29.72,29.53,29.41,10,10,10,17,11,24,0.00,1,,274
2014-1-13,48,34,21,35,25,17,90,64,29,29.81,29.72,29.63,10,10,10,30,11,44,0.00,2,,269
2014-1-14,45,34,21,31,11,-4,69,45,20,30.24,30.08,29.69,10,10,10,40,27,53,0.00,3,,323
2014-1-15,50,32,14,28,19,10,84,59,34,30.22,29.94,29.74,10,10,10,24,8,38,0.00,6,,253
2014-1-16,45,31,17,24,13,3,66,47,33,30.16,29.93,29.74,10,10,7,52,32,62,0.00,3,,317
2014-1-17,43,26,10,21,13,6,83,57,31,30.15,30.00,29.72,10,10,10,22,9,26,0.00,2,,275
2014-1-18,43,34,23,27,23,18,82,61,41,30.07,29.89,29.68,10,10,10,39,23,53,0.00,5,,303
2014-1-19,64,44,24,22,18,3,78,44,9,29.93,29.80,29.70,10,10,10,33,13,44,0.00,0,,275
2014-1-20,41,22,2,27,13,-7,73,58,41,30.48,30.14,29.87,10,10,2,41,16,54,0.00,3,Snow,320
2014-1-21,41,20,-1,23,7,-7,78,64,34,30.47,30.16,29.90,10,10,10,32,10,41,0.00,3,,273
2014-1-22,29,14,-2,21,5,-10,80,66,45,30.60,30.27,30.06,10,9,1,28,13,34,0.00,4,Snow,333
2014-1-23,22,8,-5,3,-11,-19,74,48,16,30.73,30.58,30.21,10,10,10,17,9,24,0.00,0,,272
2014-1-24,51,34,18,36,21,4,66,49,36,30.19,29.90,29.74,10,10,10,34,18,45,0.00,4,,283
2014-1-25,49,40,30,34,29,25,90,69,41,30.05,29.84,29.55,10,10,3,26,15,37,0.00,6,Rain-Snow,291
2014-1-26,49,26,3,31,16,-9,72,55,35,30.29,29.82,29.58,10,10,5,38,24,50,0.00,3,Snow,315
2014-1-27,11,4,-3,-8,-11,-16,73,54,29,30.42,30.35,30.29,10,10,10,21,11,28,0.00,0,,324
2014-1-28,19,6,-6,-3,-8,-14,73,57,33,30.36,30.25,30.09,10,10,10,18,6,25,0.00,0,,274
2014-1-29,54,28,1,6,0,-7,68,39,11,30.09,29.75,29.37,10,10,10,16,9,21,0.00,1,,203
2014-1-30,46,32,16,34,11,6,77,56,21,30.04,29.72,29.28,10,10,10,32,15,40,0.00,6,,329
2014-1-31,29,22,14,16,9,5,76,62,43,30.06,29.96,29.86,10,10,7,12,5,16,0.00,6,Snow,200